createdAt,value
2023-02-07T00:00:31.742Z,210.70
2023-02-07T00:05:36.337Z,195.50
2023-02-07T00:10:41.803Z,187.80
2023-02-07T00:15:55.648Z,146.70
2023-02-07T00:21:03.635Z,128.20
2023-02-07T00:26:09.608Z,129.00
2023-02-07T00:31:19.859Z,129.90
2023-02-07T00:36:24.040Z,130.70
2023-02-07T00:41:29.352Z,130.00
2023-02-07T00:46:36.817Z,125.20
2023-02-07T00:51:41.887Z,140.50
2023-02-07T01:01:53.250Z,140.70
2023-02-07T01:06:57.614Z,141.20
2023-02-07T01:12:07.695Z,153.40
2023-02-07T01:17:09.720Z,136.30
2023-02-07T01:22:14.093Z,126.00
2023-02-07T01:27:27.127Z,129.10
2023-02-07T01:32:34.915Z,124.50
2023-02-07T01:37:51.440Z,129.80
2023-02-07T01:42:57.200Z,122.30
2023-02-07T01:48:05.363Z,122.60
2023-02-07T01:53:15.910Z,118.70
2023-02-07T01:58:26.252Z,112.60
2023-02-07T02:04:27.482Z,114.80
2023-02-07T02:09:56.335Z,115.10
2023-02-07T02:15:16.947Z,133.00
2023-02-07T02:21:06.442Z,143.50
2023-02-07T02:26:42.150Z,140.90
2023-02-07T02:32:31.999Z,149.80
2023-02-07T02:38:37.669Z,150.60
2023-02-07T02:45:02.001Z,157.00
2023-02-07T02:50:29.004Z,166.20
2023-02-07T02:56:13.300Z,159.90
2023-02-07T03:02:17.964Z,153.10
2023-02-07T03:08:25.997Z,141.10
2023-02-07T03:13:40.640Z,171.80
2023-02-07T03:18:46.693Z,174.10
2023-02-07T03:23:53.097Z,179.00
2023-02-07T03:29:02.808Z,158.50
2023-02-07T03:34:17.484Z,145.70
2023-02-07T03:39:19.616Z,154.80
2023-02-07T03:44:24.546Z,142.40
2023-02-07T03:49:26.208Z,146.70
2023-02-07T03:54:29.277Z,149.10
2023-02-07T03:59:33.509Z,166.30
2023-02-07T04:04:35.680Z,179.20
2023-02-07T04:09:37.184Z,165.10
2023-02-07T04:14:38.710Z,148.20
2023-02-07T04:19:40.421Z,127.80
2023-02-07T04:24:41.849Z,141.70
2023-02-07T04:29:43.790Z,137.90
2023-02-07T04:34:45.389Z,122.60
2023-02-07T04:39:46.961Z,141.60
2023-02-07T04:44:56.062Z,142.20
2023-02-07T04:49:57.756Z,160.80
2023-02-07T04:55:43.461Z,178.80
2023-02-07T05:01:44.979Z,197.40
2023-02-07T05:08:06.067Z,236.50
2023-02-07T05:13:07.765Z,197.00
2023-02-07T05:18:09.601Z,194.40
2023-02-07T05:23:14.452Z,174.70
2023-02-07T05:28:19.889Z,180.40
2023-02-07T05:33:24.693Z,180.50
2023-02-07T05:38:29.433Z,165.80
2023-02-07T05:43:31.166Z,217.20
2023-02-07T05:49:35.347Z,230.50
2023-02-07T05:55:02.371Z,233.30
2023-02-07T06:00:04.497Z,232.30
2023-02-07T06:05:22.478Z,188.00
2023-02-07T06:10:32.556Z,176.10
2023-02-07T06:15:40.752Z,179.80
2023-02-07T06:20:42.453Z,187.70
2023-02-07T06:25:54.334Z,183.40
2023-02-07T06:32:03.714Z,183.60
2023-02-07T06:38:30.107Z,154.70
2023-02-07T06:43:38.663Z,180.90
2023-02-07T06:48:40.399Z,193.20
2023-02-07T06:53:42.306Z,185.50
2023-02-07T06:58:44.462Z,186.90
2023-02-07T07:03:51.203Z,170.00
2023-02-07T07:09:52.616Z,181.00
2023-02-07T07:15:14.717Z,178.50
2023-02-07T07:20:16.443Z,186.30
2023-02-07T07:25:19.276Z,186.30
2023-02-07T07:30:21.037Z,195.30
2023-02-07T07:35:23.057Z,208.50
2023-02-07T07:40:24.552Z,202.90
2023-02-07T07:45:25.983Z,191.50
2023-02-07T07:50:27.497Z,171.20
2023-02-07T07:55:29.323Z,166.30
2023-02-07T08:00:30.874Z,163.60
2023-02-07T08:05:32.793Z,162.10
2023-02-07T08:10:34.278Z,174.40
2023-02-07T08:15:36.122Z,164.40
2023-02-07T08:20:40.385Z,157.70
2023-02-07T08:25:42.547Z,170.90
2023-02-07T08:30:46.921Z,183.70
2023-02-07T08:35:50.510Z,202.50
2023-02-07T08:40:52.355Z,198.60
2023-02-07T08:45:53.973Z,190.60
2023-02-07T08:50:55.580Z,188.30
2023-02-07T08:55:57.331Z,166.10
2023-02-07T09:00:58.921Z,176.60
2023-02-07T09:06:01.014Z,159.20
2023-02-07T09:11:09.032Z,158.60
2023-02-07T09:16:14.051Z,156.60
2023-02-07T09:21:15.792Z,142.20
2023-02-07T09:26:19.558Z,149.80
2023-02-07T09:31:21.240Z,160.70
2023-02-07T09:36:26.031Z,134.10
2023-02-07T09:41:42.153Z,133.30
2023-02-07T09:46:54.977Z,135.00
2023-02-07T09:52:01.519Z,115.70
2023-02-07T09:57:08.019Z,124.20
2023-02-07T10:02:30.210Z,107.80
2023-02-07T10:07:32.495Z,134.20
2023-02-07T10:12:34.095Z,140.00
2023-02-07T10:17:53.251Z,130.70
2023-02-07T10:22:57.639Z,128.70
2023-02-07T10:28:02.045Z,131.60
2023-02-07T10:33:23.228Z,123.30
2023-02-07T10:38:37.484Z,114.70
2023-02-07T10:43:42.103Z,110.20
2023-02-07T10:48:48.376Z,110.90
2023-02-07T10:54:11.944Z,103.70
2023-02-07T10:59:38.694Z,98.80
2023-02-07T11:04:43.167Z,89.60
2023-02-07T11:09:44.829Z,89.70
2023-02-07T11:15:10.564Z,86.50
2023-02-07T11:20:20.399Z,80.00
2023-02-07T11:25:48.902Z,72.20
2023-02-07T11:36:18.333Z,71.10
2023-02-07T11:41:28.060Z,67.10
2023-02-07T11:46:43.182Z,74.30
2023-02-07T11:51:44.750Z,73.50
2023-02-07T11:57:00.269Z,74.30
2023-02-07T12:02:19.538Z,69.60
2023-02-07T12:07:33.918Z,72.20
2023-02-07T12:12:53.692Z,67.90
2023-02-07T12:18:10.454Z,64.60
2023-02-07T12:28:48.449Z,67.10
2023-02-07T12:34:04.397Z,69.90
2023-02-07T12:39:19.801Z,69.40
2023-02-07T12:44:34.070Z,62.50
2023-02-07T12:50:13.929Z,64.00
2023-02-07T12:55:30.829Z,70.80
2023-02-07T13:00:57.604Z,70.30
2023-02-07T13:06:23.915Z,67.40
2023-02-07T13:12:03.624Z,67.20
2023-02-07T13:17:27.013Z,59.90
2023-02-07T13:22:53.808Z,92.00
2023-02-07T13:28:03.316Z,54.40
2023-02-07T13:33:37.321Z,43.90
2023-02-07T13:38:53.068Z,44.00
2023-02-07T13:44:22.861Z,30.90
2023-02-07T13:49:45.410Z,29.70
2023-02-07T13:55:18.012Z,30.20
2023-02-07T14:00:24.803Z,30.90
2023-02-07T14:05:35.076Z,32.50
2023-02-07T14:10:51.132Z,34.30
2023-02-07T14:15:58.235Z,33.00
2023-02-07T14:21:04.289Z,33.30
2023-02-07T14:26:37.698Z,35.50
2023-02-07T14:31:48.235Z,37.10
2023-02-07T14:37:01.480Z,35.60
2023-02-07T14:42:18.277Z,46.80
2023-02-07T14:47:25.951Z,50.50
2023-02-07T14:52:31.280Z,45.90
2023-02-07T14:57:39.959Z,48.20
2023-02-07T15:02:57.912Z,52.70
2023-02-07T15:08:02.122Z,48.00
2023-02-07T15:13:17.471Z,44.20
2023-02-07T15:18:27.995Z,46.30
2023-02-07T15:23:31.586Z,42.50
2023-02-07T15:28:34.122Z,45.90
2023-02-07T15:33:46.988Z,46.60
2023-02-07T15:38:48.908Z,47.20
2023-02-07T15:43:58.044Z,49.30
2023-02-07T15:49:01.778Z,45.30
2023-02-07T15:54:04.842Z,42.60
2023-02-07T15:59:10.739Z,39.60
2023-02-07T16:04:15.270Z,38.50
2023-02-07T16:09:37.801Z,43.60
2023-02-07T16:14:40.474Z,45.10
2023-02-07T16:19:45.739Z,48.00
2023-02-07T16:24:50.825Z,46.30
2023-02-07T16:30:04.954Z,45.90
2023-02-07T16:35:18.906Z,47.60
2023-02-07T16:40:26.031Z,46.10
2023-02-07T16:45:32.286Z,39.90
2023-02-07T16:50:47.026Z,45.60
2023-02-07T16:55:48.679Z,49.00
2023-02-07T17:00:51.180Z,55.40
2023-02-07T17:05:55.662Z,58.20
2023-02-07T17:11:03.306Z,63.10
2023-02-07T17:16:05.578Z,61.00
2023-02-07T17:21:08.500Z,60.40
2023-02-07T17:26:21.786Z,64.30
2023-02-07T17:31:24.507Z,57.50
2023-02-07T17:36:28.537Z,53.60
2023-02-07T17:41:30.869Z,54.60
2023-02-07T17:46:33.103Z,61.40
2023-02-07T17:51:34.975Z,57.50
2023-02-07T17:56:39.045Z,56.70
2023-02-07T18:01:40.887Z,54.00
2023-02-07T18:06:42.801Z,51.50
2023-02-07T18:11:44.532Z,53.50
2023-02-07T18:16:46.659Z,50.30
2023-02-07T18:21:49.214Z,52.00
2023-02-07T18:26:52.664Z,50.70
2023-02-07T18:31:55.272Z,48.90
2023-02-07T18:36:59.566Z,44.90
2023-02-07T18:42:03.352Z,39.60
2023-02-07T18:47:08.016Z,36.70
2023-02-07T18:57:14.824Z,30.00
2023-02-07T19:02:16.688Z,33.90
2023-02-07T19:07:18.292Z,31.40
2023-02-07T19:12:20.067Z,30.70
2023-02-07T19:17:24.130Z,31.20
2023-02-07T19:22:35.396Z,31.60
2023-02-07T19:27:37.473Z,35.10
2023-02-07T19:32:40.127Z,32.80
2023-02-07T19:37:41.668Z,35.70
2023-02-07T19:42:44.890Z,36.00
2023-02-07T19:47:46.653Z,36.40
2023-02-07T19:52:56.645Z,38.60
2023-02-07T19:57:59.215Z,36.40
2023-02-07T20:03:00.569Z,37.00
2023-02-07T20:08:02.610Z,38.10
2023-02-07T20:13:04.418Z,40.00
2023-02-07T20:18:06.726Z,37.30
2023-02-07T20:23:09.131Z,38.40
2023-02-07T20:28:12.904Z,38.80
2023-02-07T20:33:21.317Z,36.10
2023-02-07T20:38:23.191Z,39.20
2023-02-07T20:43:26.240Z,39.30
2023-02-07T20:48:27.820Z,39.60
2023-02-07T20:53:29.367Z,46.60
2023-02-07T20:58:32.666Z,48.70
2023-02-07T21:03:34.551Z,51.70
2023-02-07T21:08:36.841Z,49.20
2023-02-07T21:13:39.151Z,48.90
2023-02-07T21:18:40.956Z,47.10
2023-02-07T21:23:42.884Z,47.60
2023-02-07T21:28:45.035Z,47.50
2023-02-07T21:33:50.655Z,46.60
2023-02-07T21:38:54.028Z,46.40
2023-02-07T21:43:56.912Z,42.90
2023-02-07T21:49:01.076Z,50.90
2023-02-07T21:54:03.971Z,50.60
2023-02-07T21:59:09.842Z,49.60
2023-02-07T22:04:12.142Z,53.00
2023-02-07T22:10:15.389Z,51.70
2023-02-07T22:15:57.124Z,49.00
2023-02-07T22:21:17.802Z,59.00
2023-02-07T22:27:27.953Z,57.20
2023-02-07T22:33:09.639Z,58.80
2023-02-07T22:38:13.032Z,55.80
2023-02-07T22:43:16.131Z,58.00
2023-02-07T22:48:20.410Z,53.10
2023-02-07T22:53:29.800Z,56.40
2023-02-07T22:58:31.808Z,54.80
2023-02-07T23:03:34.114Z,58.00
2023-02-07T23:08:35.919Z,55.70
2023-02-07T23:13:41.282Z,60.00
2023-02-07T23:18:42.948Z,60.50
2023-02-07T23:23:45.418Z,59.40
2023-02-07T23:28:50.646Z,60.40
2023-02-07T23:33:52.767Z,55.60
2023-02-07T23:39:26.591Z,51.40
2023-02-07T23:44:33.423Z,50.40
2023-02-07T23:49:37.582Z,62.60
2023-02-07T23:54:51.961Z,59.80
2023-02-07T23:59:56.126Z,63.60
